Forside
METAR-TAF:

METAR-TAF

Lufthavne :

Frankfort, Michigan, USA

Breddekreds: 44-37-30N, længdekreds: 086-12-02W, højde: 193 m

Aktuelle vejr

Denne rapport blev lavet for 29 minutter siden, kl. 17:16 UTC
Vind 12 kt fra østsydøst
Temperatur -2°C
Fugtighed 46%
Tryk 1021 hPa
Sigt: 16.1 km
Spredte skyer i en højde af 9000 ft

METAR: KFKS 171716Z AUTO 12012KT 10SM SCT090 M02/M12 A3015 RMK AO2 T10181122

Tid: 12:45 (17:45 UTC)


TAF: fraværende

Vejrobservationer og prognoser fra mere end 4000 lufthavne (METAR og TAF).

De gule og røde prikker repræsenterer de meteorologiske stationer.

Flyt musen over at se navnet på stationen.

Så klik over at se vejr observationer og prognoser.

At skifte det kort: Klik på de grønne knapper med et sort kors for at zoome ind; på den grønne knap med en bindestreg for at zoome ud; eller på de grønne pile for tilstødende kort.


METAR-TAF: